sensor_id;sensor_type;location;lat;lon;timestamp;P1;durP1;ratioP1;P2;durP2;ratioP2
33844;SDS011;20145;43.118;25.694;2023-11-19T00:01:08;3.03;;;2.83;;
33844;SDS011;20145;43.118;25.694;2023-11-19T00:03:34;4.10;;;3.70;;
33844;SDS011;20145;43.118;25.694;2023-11-19T00:06:00;4.75;;;4.10;;
33844;SDS011;20145;43.118;25.694;2023-11-19T00:08:26;4.13;;;3.72;;
33844;SDS011;20145;43.118;25.694;2023-11-19T00:10:52;3.92;;;3.47;;
33844;SDS011;20145;43.118;25.694;2023-11-19T00:13:18;3.50;;;3.20;;
33844;SDS011;20145;43.118;25.694;2023-11-19T00:15:43;3.85;;;2.88;;
33844;SDS011;20145;43.118;25.694;2023-11-19T00:18:11;3.63;;;3.33;;
33844;SDS011;20145;43.118;25.694;2023-11-19T00:20:36;3.38;;;3.08;;
33844;SDS011;20145;43.118;25.694;2023-11-19T00:23:02;3.58;;;3.08;;
33844;SDS011;20145;43.118;25.694;2023-11-19T00:25:28;3.10;;;2.80;;
33844;SDS011;20145;43.118;25.694;2023-11-19T00:27:53;3.85;;;3.38;;
33844;SDS011;20145;43.118;25.694;2023-11-19T00:30:19;3.40;;;2.95;;
33844;SDS011;20145;43.118;25.694;2023-11-19T00:32:45;4.07;;;2.78;;
33844;SDS011;20145;43.118;25.694;2023-11-19T00:35:11;3.10;;;2.80;;
33844;SDS011;20145;43.118;25.694;2023-11-19T00:37:39;3.30;;;2.95;;
33844;SDS011;20145;43.118;25.694;2023-11-19T00:40:05;4.82;;;3.20;;
33844;SDS011;20145;43.118;25.694;2023-11-19T00:42:31;3.78;;;3.47;;
33844;SDS011;20145;43.118;25.694;2023-11-19T00:44:56;3.83;;;3.42;;
33844;SDS011;20145;43.118;25.694;2023-11-19T00:47:24;3.28;;;2.97;;
33844;SDS011;20145;43.118;25.694;2023-11-19T00:49:51;4.18;;;2.53;;
33844;SDS011;20145;43.118;25.694;2023-11-19T00:52:18;3.53;;;3.22;;
33844;SDS011;20145;43.118;25.694;2023-11-19T00:54:44;3.42;;;3.13;;
33844;SDS011;20145;43.118;25.694;2023-11-19T00:57:10;3.35;;;3.05;;
33844;SDS011;20145;43.118;25.694;2023-11-19T00:59:37;3.50;;;3.20;;
33844;SDS011;20145;43.118;25.694;2023-11-19T01:02:03;3.40;;;3.10;;
33844;SDS011;20145;43.118;25.694;2023-11-19T01:04:34;3.50;;;3.20;;
33844;SDS011;20145;43.118;25.694;2023-11-19T01:07:04;3.25;;;2.95;;
33844;SDS011;20145;43.118;25.694;2023-11-19T01:09:31;3.13;;;2.78;;
33844;SDS011;20145;43.118;25.694;2023-11-19T01:12:01;3.58;;;3.28;;
33844;SDS011;20145;43.118;25.694;2023-11-19T01:14:27;4.03;;;3.08;;
33844;SDS011;20145;43.118;25.694;2023-11-19T01:16:53;3.40;;;3.10;;
33844;SDS011;20145;43.118;25.694;2023-11-19T01:19:19;3.10;;;2.75;;
33844;SDS011;20145;43.118;25.694;2023-11-19T01:21:51;4.40;;;2.83;;
33844;SDS011;20145;43.118;25.694;2023-11-19T01:24:23;2.90;;;2.70;;
33844;SDS011;20145;43.118;25.694;2023-11-19T01:26:48;3.30;;;3.10;;
33844;SDS011;20145;43.118;25.694;2023-11-19T01:29:14;4.22;;;3.15;;
33844;SDS011;20145;43.118;25.694;2023-11-19T01:31:43;3.17;;;2.85;;
33844;SDS011;20145;43.118;25.694;2023-11-19T01:34:12;3.65;;;3.35;;
33844;SDS011;20145;43.118;25.694;2023-11-19T01:36:38;3.33;;;3.05;;
33844;SDS011;20145;43.118;25.694;2023-11-19T01:39:04;2.95;;;2.75;;
33844;SDS011;20145;43.118;25.694;2023-11-19T01:41:33;3.17;;;2.88;;
33844;SDS011;20145;43.118;25.694;2023-11-19T01:44:02;3.33;;;3.00;;
33844;SDS011;20145;43.118;25.694;2023-11-19T01:46:27;3.25;;;2.92;;
33844;SDS011;20145;43.118;25.694;2023-11-19T01:48:54;3.47;;;3.17;;
33844;SDS011;20145;43.118;25.694;2023-11-19T01:51:21;3.03;;;2.78;;
33844;SDS011;20145;43.118;25.694;2023-11-19T01:53:47;2.80;;;2.60;;
33844;SDS011;20145;43.118;25.694;2023-11-19T01:56:14;3.47;;;3.10;;
33844;SDS011;20145;43.118;25.694;2023-11-19T01:58:41;3.30;;;3.00;;
33844;SDS011;20145;43.118;25.694;2023-11-19T02:01:08;2.78;;;2.58;;
33844;SDS011;20145;43.118;25.694;2023-11-19T02:03:36;2.92;;;2.72;;
33844;SDS011;20145;43.118;25.694;2023-11-19T02:06:02;3.33;;;3.08;;
33844;SDS011;20145;43.118;25.694;2023-11-19T02:08:29;3.25;;;2.95;;
33844;SDS011;20145;43.118;25.694;2023-11-19T02:10:55;4.40;;;3.60;;
33844;SDS011;20145;43.118;25.694;2023-11-19T02:13:29;3.65;;;2.80;;
33844;SDS011;20145;43.118;25.694;2023-11-19T02:15:54;3.35;;;3.05;;
33844;SDS011;20145;43.118;25.694;2023-11-19T02:18:28;2.92;;;2.60;;
33844;SDS011;20145;43.118;25.694;2023-11-19T02:20:56;3.15;;;2.85;;
33844;SDS011;20145;43.118;25.694;2023-11-19T02:26:23;4.60;;;2.83;;
33844;SDS011;20145;43.118;25.694;2023-11-19T02:28:58;3.40;;;3.10;;
33844;SDS011;20145;43.118;25.694;2023-11-19T02:31:24;3.42;;;3.13;;
33844;SDS011;20145;43.118;25.694;2023-11-19T02:33:53;4.30;;;2.88;;
33844;SDS011;20145;43.118;25.694;2023-11-19T02:36:24;3.05;;;2.80;;
33844;SDS011;20145;43.118;25.694;2023-11-19T02:39:00;3.67;;;3.38;;
33844;SDS011;20145;43.118;25.694;2023-11-19T02:41:29;3.35;;;3.05;;
33844;SDS011;20145;43.118;25.694;2023-11-19T02:44:02;3.38;;;3.08;;
33844;SDS011;20145;43.118;25.694;2023-11-19T02:46:30;2.97;;;2.78;;
33844;SDS011;20145;43.118;25.694;2023-11-19T02:48:57;2.88;;;2.67;;
33844;SDS011;20145;43.118;25.694;2023-11-19T02:51:25;2.90;;;2.70;;
33844;SDS011;20145;43.118;25.694;2023-11-19T02:53:56;3.25;;;2.95;;
33844;SDS011;20145;43.118;25.694;2023-11-19T02:56:21;3.97;;;3.58;;
33844;SDS011;20145;43.118;25.694;2023-11-19T02:58:55;3.42;;;3.13;;
33844;SDS011;20145;43.118;25.694;2023-11-19T03:01:21;2.97;;;2.70;;
33844;SDS011;20145;43.118;25.694;2023-11-19T03:03:54;4.43;;;2.97;;
33844;SDS011;20145;43.118;25.694;2023-11-19T03:06:23;3.50;;;3.20;;
33844;SDS011;20145;43.118;25.694;2023-11-19T03:08:49;3.70;;;3.40;;
33844;SDS011;20145;43.118;25.694;2023-11-19T03:11:15;3.40;;;3.10;;
33844;SDS011;20145;43.118;25.694;2023-11-19T03:13:42;3.70;;;3.40;;
33844;SDS011;20145;43.118;25.694;2023-11-19T03:16:08;3.72;;;3.40;;
33844;SDS011;20145;43.118;25.694;2023-11-19T03:18:33;3.75;;;3.10;;
33844;SDS011;20145;43.118;25.694;2023-11-19T03:21:11;3.53;;;3.22;;
33844;SDS011;20145;43.118;25.694;2023-11-19T03:23:39;3.45;;;3.15;;
33844;SDS011;20145;43.118;25.694;2023-11-19T03:26:05;3.88;;;3.58;;
33844;SDS011;20145;43.118;25.694;2023-11-19T03:28:31;3.95;;;3.40;;
33844;SDS011;20145;43.118;25.694;2023-11-19T03:30:57;3.03;;;2.67;;
33844;SDS011;20145;43.118;25.694;2023-11-19T03:33:22;4.35;;;3.38;;
33844;SDS011;20145;43.118;25.694;2023-11-19T03:35:56;3.90;;;3.50;;
33844;SDS011;20145;43.118;25.694;2023-11-19T03:38:22;3.85;;;3.55;;
33844;SDS011;20145;43.118;25.694;2023-11-19T03:40:48;4.00;;;3.60;;
33844;SDS011;20145;43.118;25.694;2023-11-19T03:43:16;4.95;;;3.75;;
33844;SDS011;20145;43.118;25.694;2023-11-19T03:45:42;4.28;;;3.88;;
33844;SDS011;20145;43.118;25.694;2023-11-19T03:48:07;4.28;;;3.88;;
33844;SDS011;20145;43.118;25.694;2023-11-19T03:53:23;3.97;;;3.67;;
33844;SDS011;20145;43.118;25.694;2023-11-19T03:55:49;4.15;;;3.75;;
33844;SDS011;20145;43.118;25.694;2023-11-19T03:58:16;6.50;;;3.28;;
33844;SDS011;20145;43.118;25.694;2023-11-19T04:00:45;3.53;;;3.22;;
33844;SDS011;20145;43.118;25.694;2023-11-19T04:03:11;4.30;;;3.90;;
33844;SDS011;20145;43.118;25.694;2023-11-19T04:05:38;3.97;;;3.58;;
33844;SDS011;20145;43.118;25.694;2023-11-19T04:08:04;3.95;;;3.55;;
33844;SDS011;20145;43.118;25.694;2023-11-19T04:10:30;4.15;;;3.75;;
33844;SDS011;20145;43.118;25.694;2023-11-19T04:12:57;3.92;;;3.50;;
33844;SDS011;20145;43.118;25.694;2023-11-19T04:15:34;3.53;;;3.22;;
33844;SDS011;20145;43.118;25.694;2023-11-19T04:18:01;4.25;;;3.85;;
33844;SDS011;20145;43.118;25.694;2023-11-19T04:20:28;4.07;;;3.67;;
33844;SDS011;20145;43.118;25.694;2023-11-19T04:22:54;3.50;;;3.20;;
33844;SDS011;20145;43.118;25.694;2023-11-19T04:25:19;5.18;;;3.40;;
33844;SDS011;20145;43.118;25.694;2023-11-19T04:27:53;5.15;;;3.80;;
33844;SDS011;20145;43.118;25.694;2023-11-19T04:32:49;3.85;;;3.10;;
33844;SDS011;20145;43.118;25.694;2023-11-19T04:35:15;3.97;;;3.58;;
33844;SDS011;20145;43.118;25.694;2023-11-19T04:37:41;5.63;;;4.15;;
33844;SDS011;20145;43.118;25.694;2023-11-19T04:40:08;4.80;;;3.90;;
33844;SDS011;20145;43.118;25.694;2023-11-19T04:42:34;4.43;;;4.00;;
33844;SDS011;20145;43.118;25.694;2023-11-19T04:45:00;5.90;;;3.63;;
33844;SDS011;20145;43.118;25.694;2023-11-19T04:47:26;4.82;;;4.32;;
33844;SDS011;20145;43.118;25.694;2023-11-19T04:49:51;5.03;;;4.53;;
33844;SDS011;20145;43.118;25.694;2023-11-19T04:52:17;4.88;;;3.53;;
33844;SDS011;20145;43.118;25.694;2023-11-19T04:54:43;6.13;;;4.63;;
33844;SDS011;20145;43.118;25.694;2023-11-19T04:57:09;5.28;;;4.57;;
33844;SDS011;20145;43.118;25.694;2023-11-19T04:59:38;5.15;;;4.30;;
33844;SDS011;20145;43.118;25.694;2023-11-19T05:02:05;5.78;;;4.20;;
33844;SDS011;20145;43.118;25.694;2023-11-19T05:04:31;5.22;;;4.50;;
33844;SDS011;20145;43.118;25.694;2023-11-19T05:06:59;5.45;;;4.50;;
33844;SDS011;20145;43.118;25.694;2023-11-19T05:09:26;4.65;;;4.25;;
33844;SDS011;20145;43.118;25.694;2023-11-19T05:11:51;4.22;;;3.65;;
33844;SDS011;20145;43.118;25.694;2023-11-19T05:14:17;4.32;;;3.63;;
33844;SDS011;20145;43.118;25.694;2023-11-19T05:16:45;5.13;;;4.00;;
33844;SDS011;20145;43.118;25.694;2023-11-19T05:19:11;4.15;;;3.80;;
33844;SDS011;20145;43.118;25.694;2023-11-19T05:21:37;4.07;;;3.70;;
33844;SDS011;20145;43.118;25.694;2023-11-19T05:24:03;4.20;;;3.80;;
33844;SDS011;20145;43.118;25.694;2023-11-19T05:26:31;4.50;;;4.10;;
33844;SDS011;20145;43.118;25.694;2023-11-19T05:28:57;4.07;;;3.67;;
33844;SDS011;20145;43.118;25.694;2023-11-19T05:31:22;4.60;;;3.70;;
33844;SDS011;20145;43.118;25.694;2023-11-19T05:33:48;4.72;;;4.13;;
33844;SDS011;20145;43.118;25.694;2023-11-19T05:36:14;4.35;;;3.95;;
33844;SDS011;20145;43.118;25.694;2023-11-19T05:38:39;6.28;;;4.13;;
33844;SDS011;20145;43.118;25.694;2023-11-19T05:41:06;4.40;;;4.00;;
33844;SDS011;20145;43.118;25.694;2023-11-19T05:43:32;4.50;;;3.97;;
33844;SDS011;20145;43.118;25.694;2023-11-19T05:45:58;4.55;;;4.15;;
33844;SDS011;20145;43.118;25.694;2023-11-19T05:48:25;6.60;;;5.53;;
33844;SDS011;20145;43.118;25.694;2023-11-19T05:50:51;7.57;;;4.75;;
33844;SDS011;20145;43.118;25.694;2023-11-19T05:53:17;6.05;;;4.90;;
33844;SDS011;20145;43.118;25.694;2023-11-19T05:55:43;6.25;;;4.43;;
33844;SDS011;20145;43.118;25.694;2023-11-19T05:58:15;6.43;;;4.65;;
33844;SDS011;20145;43.118;25.694;2023-11-19T06:00:41;7.57;;;5.03;;
33844;SDS011;20145;43.118;25.694;2023-11-19T06:03:07;5.32;;;4.75;;
33844;SDS011;20145;43.118;25.694;2023-11-19T06:05:37;6.72;;;5.68;;
33844;SDS011;20145;43.118;25.694;2023-11-19T06:08:04;6.95;;;6.25;;
33844;SDS011;20145;43.118;25.694;2023-11-19T06:10:34;7.63;;;5.18;;
33844;SDS011;20145;43.118;25.694;2023-11-19T06:13:00;5.28;;;4.78;;
33844;SDS011;20145;43.118;25.694;2023-11-19T06:15:30;5.63;;;5.05;;
33844;SDS011;20145;43.118;25.694;2023-11-19T06:17:55;6.25;;;5.15;;
33844;SDS011;20145;43.118;25.694;2023-11-19T06:20:23;4.38;;;3.97;;
33844;SDS011;20145;43.118;25.694;2023-11-19T06:22:49;5.68;;;5.05;;
33844;SDS011;20145;43.118;25.694;2023-11-19T06:25:15;5.45;;;4.75;;
33844;SDS011;20145;43.118;25.694;2023-11-19T06:27:42;5.57;;;4.88;;
33844;SDS011;20145;43.118;25.694;2023-11-19T06:30:09;5.78;;;4.85;;
33844;SDS011;20145;43.118;25.694;2023-11-19T06:32:35;4.53;;;4.13;;
33844;SDS011;20145;43.118;25.694;2023-11-19T06:35:01;5.85;;;4.65;;
33844;SDS011;20145;43.118;25.694;2023-11-19T06:37:29;5.57;;;4.32;;
33844;SDS011;20145;43.118;25.694;2023-11-19T06:39:56;5.95;;;5.07;;
33844;SDS011;20145;43.118;25.694;2023-11-19T06:42:22;6.35;;;5.63;;
33844;SDS011;20145;43.118;25.694;2023-11-19T06:44:47;6.90;;;5.20;;
33844;SDS011;20145;43.118;25.694;2023-11-19T06:47:13;5.57;;;5.07;;
33844;SDS011;20145;43.118;25.694;2023-11-19T06:49:39;5.50;;;5.00;;
33844;SDS011;20145;43.118;25.694;2023-11-19T06:52:04;5.07;;;4.57;;
33844;SDS011;20145;43.118;25.694;2023-11-19T06:54:30;4.78;;;4.38;;
33844;SDS011;20145;43.118;25.694;2023-11-19T06:56:56;5.57;;;4.97;;
33844;SDS011;20145;43.118;25.694;2023-11-19T06:59:23;4.88;;;4.40;;
33844;SDS011;20145;43.118;25.694;2023-11-19T07:01:49;4.95;;;4.53;;
33844;SDS011;20145;43.118;25.694;2023-11-19T07:04:14;5.05;;;4.55;;
33844;SDS011;20145;43.118;25.694;2023-11-19T07:06:40;5.10;;;4.60;;
33844;SDS011;20145;43.118;25.694;2023-11-19T07:09:06;5.28;;;4.78;;
33844;SDS011;20145;43.118;25.694;2023-11-19T07:11:35;4.60;;;4.20;;
33844;SDS011;20145;43.118;25.694;2023-11-19T07:14:03;7.13;;;5.53;;
33844;SDS011;20145;43.118;25.694;2023-11-19T07:16:29;6.85;;;5.50;;
33844;SDS011;20145;43.118;25.694;2023-11-19T07:18:55;4.90;;;4.45;;
33844;SDS011;20145;43.118;25.694;2023-11-19T07:21:21;5.85;;;5.25;;
33844;SDS011;20145;43.118;25.694;2023-11-19T07:23:49;6.00;;;5.40;;
33844;SDS011;20145;43.118;25.694;2023-11-19T07:26:17;8.98;;;6.43;;
33844;SDS011;20145;43.118;25.694;2023-11-19T07:28:42;6.15;;;5.55;;
33844;SDS011;20145;43.118;25.694;2023-11-19T07:31:10;8.07;;;7.28;;
33844;SDS011;20145;43.118;25.694;2023-11-19T07:33:36;5.30;;;4.65;;
33844;SDS011;20145;43.118;25.694;2023-11-19T07:36:03;4.95;;;4.50;;
33844;SDS011;20145;43.118;25.694;2023-11-19T07:38:28;6.22;;;5.63;;
33844;SDS011;20145;43.118;25.694;2023-11-19T07:40:54;5.90;;;5.25;;
33844;SDS011;20145;43.118;25.694;2023-11-19T07:43:20;5.20;;;4.60;;
33844;SDS011;20145;43.118;25.694;2023-11-19T07:45:45;5.47;;;4.85;;
33844;SDS011;20145;43.118;25.694;2023-11-19T07:48:12;4.03;;;3.72;;
33844;SDS011;20145;43.118;25.694;2023-11-19T07:50:38;6.80;;;4.57;;
33844;SDS011;20145;43.118;25.694;2023-11-19T07:53:07;6.43;;;5.82;;
33844;SDS011;20145;43.118;25.694;2023-11-19T07:55:34;6.28;;;5.32;;
33844;SDS011;20145;43.118;25.694;2023-11-19T07:58:00;6.18;;;5.38;;
33844;SDS011;20145;43.118;25.694;2023-11-19T08:00:26;7.15;;;5.97;;
33844;SDS011;20145;43.118;25.694;2023-11-19T08:02:51;9.10;;;6.78;;
33844;SDS011;20145;43.118;25.694;2023-11-19T08:05:17;4.78;;;4.20;;
33844;SDS011;20145;43.118;25.694;2023-11-19T08:07:44;6.75;;;5.57;;
33844;SDS011;20145;43.118;25.694;2023-11-19T08:10:09;12.15;;;7.78;;
33844;SDS011;20145;43.118;25.694;2023-11-19T08:12:36;8.00;;;5.90;;
33844;SDS011;20145;43.118;25.694;2023-11-19T08:15:03;6.18;;;5.45;;
33844;SDS011;20145;43.118;25.694;2023-11-19T08:17:30;6.80;;;5.88;;
33844;SDS011;20145;43.118;25.694;2023-11-19T08:19:55;6.32;;;5.72;;
33844;SDS011;20145;43.118;25.694;2023-11-19T08:22:21;10.00;;;8.93;;
33844;SDS011;20145;43.118;25.694;2023-11-19T08:24:48;6.65;;;5.57;;
33844;SDS011;20145;43.118;25.694;2023-11-19T08:27:14;6.13;;;5.45;;
33844;SDS011;20145;43.118;25.694;2023-11-19T08:29:39;24.77;;;5.90;;
33844;SDS011;20145;43.118;25.694;2023-11-19T08:32:05;6.80;;;6.10;;
33844;SDS011;20145;43.118;25.694;2023-11-19T08:34:32;8.35;;;6.82;;
33844;SDS011;20145;43.118;25.694;2023-11-19T08:36:57;7.20;;;6.47;;
33844;SDS011;20145;43.118;25.694;2023-11-19T08:39:24;6.15;;;5.50;;
33844;SDS011;20145;43.118;25.694;2023-11-19T08:41:51;8.98;;;7.68;;
33844;SDS011;20145;43.118;25.694;2023-11-19T08:44:16;6.97;;;6.15;;
33844;SDS011;20145;43.118;25.694;2023-11-19T08:46:47;6.38;;;4.85;;
33844;SDS011;20145;43.118;25.694;2023-11-19T08:51:41;8.40;;;6.20;;
33844;SDS011;20145;43.118;25.694;2023-11-19T08:54:06;7.93;;;6.80;;
33844;SDS011;20145;43.118;25.694;2023-11-19T08:56:32;5.90;;;5.32;;
33844;SDS011;20145;43.118;25.694;2023-11-19T08:59:01;8.13;;;6.75;;
33844;SDS011;20145;43.118;25.694;2023-11-19T09:01:27;5.82;;;5.07;;
33844;SDS011;20145;43.118;25.694;2023-11-19T09:03:53;5.82;;;5.25;;
33844;SDS011;20145;43.118;25.694;2023-11-19T09:06:18;6.20;;;5.60;;
33844;SDS011;20145;43.118;25.694;2023-11-19T09:08:45;6.22;;;5.63;;
33844;SDS011;20145;43.118;25.694;2023-11-19T09:13:41;6.90;;;6.20;;
33844;SDS011;20145;43.118;25.694;2023-11-19T09:16:07;7.60;;;6.32;;
33844;SDS011;20145;43.118;25.694;2023-11-19T09:18:35;8.32;;;7.30;;
33844;SDS011;20145;43.118;25.694;2023-11-19T09:21:01;6.22;;;5.60;;
33844;SDS011;20145;43.118;25.694;2023-11-19T09:23:28;6.55;;;5.95;;
33844;SDS011;20145;43.118;25.694;2023-11-19T09:25:57;6.82;;;6.13;;
33844;SDS011;20145;43.118;25.694;2023-11-19T09:28:24;9.27;;;7.68;;
33844;SDS011;20145;43.118;25.694;2023-11-19T09:30:52;7.20;;;6.50;;
33844;SDS011;20145;43.118;25.694;2023-11-19T09:33:20;10.45;;;8.63;;
33844;SDS011;20145;43.118;25.694;2023-11-19T09:35:46;13.00;;;11.70;;
33844;SDS011;20145;43.118;25.694;2023-11-19T09:38:14;11.07;;;9.98;;
33844;SDS011;20145;43.118;25.694;2023-11-19T09:40:41;9.68;;;7.97;;
33844;SDS011;20145;43.118;25.694;2023-11-19T09:43:07;12.15;;;10.85;;
33844;SDS011;20145;43.118;25.694;2023-11-19T09:45:37;8.93;;;8.02;;
33844;SDS011;20145;43.118;25.694;2023-11-19T09:48:17;9.82;;;8.43;;
33844;SDS011;20145;43.118;25.694;2023-11-19T09:50:47;18.38;;;13.35;;
33844;SDS011;20145;43.118;25.694;2023-11-19T09:53:14;11.18;;;8.27;;
33844;SDS011;20145;43.118;25.694;2023-11-19T09:55:41;9.40;;;8.18;;
33844;SDS011;20145;43.118;25.694;2023-11-19T09:58:07;9.80;;;7.28;;
33844;SDS011;20145;43.118;25.694;2023-11-19T10:00:34;17.08;;;9.98;;
33844;SDS011;20145;43.118;25.694;2023-11-19T10:03:00;9.55;;;7.80;;
33844;SDS011;20145;43.118;25.694;2023-11-19T10:05:27;28.67;;;14.57;;
33844;SDS011;20145;43.118;25.694;2023-11-19T10:07:55;9.40;;;6.82;;
33844;SDS011;20145;43.118;25.694;2023-11-19T10:10:20;37.25;;;17.40;;
33844;SDS011;20145;43.118;25.694;2023-11-19T10:12:46;40.95;;;17.02;;
33844;SDS011;20145;43.118;25.694;2023-11-19T10:15:22;13.40;;;7.00;;
33844;SDS011;20145;43.118;25.694;2023-11-19T10:17:49;12.32;;;7.78;;
33844;SDS011;20145;43.118;25.694;2023-11-19T10:20:15;12.75;;;7.13;;
33844;SDS011;20145;43.118;25.694;2023-11-19T10:22:41;9.00;;;7.32;;
33844;SDS011;20145;43.118;25.694;2023-11-19T10:25:22;40.92;;;14.70;;
33844;SDS011;20145;43.118;25.694;2023-11-19T10:27:52;13.27;;;8.25;;
33844;SDS011;20145;43.118;25.694;2023-11-19T10:30:26;49.08;;;18.48;;
33844;SDS011;20145;43.118;25.694;2023-11-19T10:35:31;12.00;;;7.68;;
33844;SDS011;20145;43.118;25.694;2023-11-19T10:37:59;28.42;;;13.43;;
33844;SDS011;20145;43.118;25.694;2023-11-19T10:40:44;30.55;;;14.68;;
33844;SDS011;20145;43.118;25.694;2023-11-19T10:43:09;90.97;;;32.45;;
33844;SDS011;20145;43.118;25.694;2023-11-19T10:45:36;46.97;;;20.02;;
33844;SDS011;20145;43.118;25.694;2023-11-19T10:48:02;19.63;;;10.10;;
33844;SDS011;20145;43.118;25.694;2023-11-19T10:50:38;26.55;;;13.65;;
33844;SDS011;20145;43.118;25.694;2023-11-19T10:53:05;49.75;;;20.08;;
33844;SDS011;20145;43.118;25.694;2023-11-19T10:55:32;78.82;;;27.08;;
33844;SDS011;20145;43.118;25.694;2023-11-19T11:00:45;38.75;;;15.30;;
33844;SDS011;20145;43.118;25.694;2023-11-19T11:03:19;42.20;;;16.02;;
33844;SDS011;20145;43.118;25.694;2023-11-19T11:05:51;11.43;;;7.68;;
33844;SDS011;20145;43.118;25.694;2023-11-19T11:08:17;62.90;;;21.45;;
33844;SDS011;20145;43.118;25.694;2023-11-19T11:10:53;16.80;;;8.30;;
33844;SDS011;20145;43.118;25.694;2023-11-19T11:13:22;51.15;;;18.02;;
33844;SDS011;20145;43.118;25.694;2023-11-19T11:15:55;54.80;;;21.92;;
33844;SDS011;20145;43.118;25.694;2023-11-19T11:18:23;58.53;;;19.48;;
33844;SDS011;20145;43.118;25.694;2023-11-19T11:20:53;53.88;;;19.67;;
33844;SDS011;20145;43.118;25.694;2023-11-19T11:29:28;14.68;;;7.93;;
33844;SDS011;20145;43.118;25.694;2023-11-19T11:37:32;20.55;;;11.55;;
33844;SDS011;20145;43.118;25.694;2023-11-19T11:40:02;23.17;;;12.32;;
33844;SDS011;20145;43.118;25.694;2023-11-19T11:42:38;13.68;;;6.00;;
33844;SDS011;20145;43.118;25.694;2023-11-19T11:45:13;11.48;;;7.47;;
33844;SDS011;20145;43.118;25.694;2023-11-19T11:50:12;21.70;;;11.55;;
33844;SDS011;20145;43.118;25.694;2023-11-19T11:55:29;7.88;;;6.22;;
33844;SDS011;20145;43.118;25.694;2023-11-19T11:58:01;14.80;;;8.70;;
33844;SDS011;20145;43.118;25.694;2023-11-19T12:00:31;7.18;;;5.88;;
33844;SDS011;20145;43.118;25.694;2023-11-19T12:03:04;14.50;;;7.88;;
33844;SDS011;20145;43.118;25.694;2023-11-19T12:05:31;9.32;;;8.07;;
33844;SDS011;20145;43.118;25.694;2023-11-19T12:08:05;10.07;;;7.22;;
33844;SDS011;20145;43.118;25.694;2023-11-19T12:10:37;11.63;;;7.18;;
33844;SDS011;20145;43.118;25.694;2023-11-19T12:13:09;9.00;;;7.10;;
33844;SDS011;20145;43.118;25.694;2023-11-19T12:18:21;14.30;;;7.57;;
33844;SDS011;20145;43.118;25.694;2023-11-19T12:20:51;10.77;;;8.00;;
33844;SDS011;20145;43.118;25.694;2023-11-19T12:23:17;8.48;;;7.25;;
33844;SDS011;20145;43.118;25.694;2023-11-19T12:25:42;5.85;;;5.25;;
33844;SDS011;20145;43.118;25.694;2023-11-19T12:28:13;6.80;;;5.85;;
33844;SDS011;20145;43.118;25.694;2023-11-19T12:30:41;26.33;;;20.75;;
33844;SDS011;20145;43.118;25.694;2023-11-19T12:33:10;12.30;;;11.10;;
33844;SDS011;20145;43.118;25.694;2023-11-19T12:35:46;10.05;;;8.25;;
33844;SDS011;20145;43.118;25.694;2023-11-19T12:38:23;8.93;;;8.00;;
33844;SDS011;20145;43.118;25.694;2023-11-19T12:41:05;6.88;;;5.15;;
33844;SDS011;20145;43.118;25.694;2023-11-19T12:43:31;4.82;;;4.38;;
33844;SDS011;20145;43.118;25.694;2023-11-19T12:45:59;5.05;;;4.50;;
33844;SDS011;20145;43.118;25.694;2023-11-19T12:48:25;5.18;;;4.68;;
33844;SDS011;20145;43.118;25.694;2023-11-19T12:50:51;6.78;;;5.70;;
33844;SDS011;20145;43.118;25.694;2023-11-19T12:53:19;6.07;;;5.05;;
33844;SDS011;20145;43.118;25.694;2023-11-19T12:55:45;7.30;;;5.82;;
33844;SDS011;20145;43.118;25.694;2023-11-19T12:58:27;9.05;;;5.82;;
33844;SDS011;20145;43.118;25.694;2023-11-19T13:00:58;7.03;;;5.90;;
33844;SDS011;20145;43.118;25.694;2023-11-19T13:03:31;7.30;;;6.05;;
33844;SDS011;20145;43.118;25.694;2023-11-19T13:08:46;8.13;;;6.38;;
33844;SDS011;20145;43.118;25.694;2023-11-19T13:11:32;7.28;;;5.28;;
33844;SDS011;20145;43.118;25.694;2023-11-19T13:14:00;6.25;;;4.50;;
33844;SDS011;20145;43.118;25.694;2023-11-19T13:16:29;8.23;;;6.25;;
33844;SDS011;20145;43.118;25.694;2023-11-19T13:18:56;5.93;;;5.30;;
33844;SDS011;20145;43.118;25.694;2023-11-19T13:21:22;9.50;;;5.80;;
33844;SDS011;20145;43.118;25.694;2023-11-19T13:23:48;8.15;;;5.13;;
33844;SDS011;20145;43.118;25.694;2023-11-19T13:26:16;7.45;;;5.95;;
33844;SDS011;20145;43.118;25.694;2023-11-19T13:28:41;9.13;;;6.53;;
33844;SDS011;20145;43.118;25.694;2023-11-19T13:31:07;7.55;;;6.03;;
33844;SDS011;20145;43.118;25.694;2023-11-19T13:33:33;6.43;;;4.97;;
33844;SDS011;20145;43.118;25.694;2023-11-19T13:35:59;7.40;;;6.05;;
33844;SDS011;20145;43.118;25.694;2023-11-19T13:38:30;6.40;;;5.22;;
33844;SDS011;20145;43.118;25.694;2023-11-19T13:40:56;6.65;;;5.63;;
33844;SDS011;20145;43.118;25.694;2023-11-19T13:43:23;7.80;;;5.80;;
33844;SDS011;20145;43.118;25.694;2023-11-19T13:45:48;6.80;;;6.10;;
33844;SDS011;20145;43.118;25.694;2023-11-19T13:48:14;7.22;;;5.63;;
33844;SDS011;20145;43.118;25.694;2023-11-19T13:50:40;7.95;;;6.80;;
33844;SDS011;20145;43.118;25.694;2023-11-19T13:53:05;8.18;;;6.93;;
33844;SDS011;20145;43.118;25.694;2023-11-19T13:55:31;10.10;;;6.50;;
33844;SDS011;20145;43.118;25.694;2023-11-19T13:57:57;5.95;;;5.18;;
33844;SDS011;20145;43.118;25.694;2023-11-19T14:00:23;6.57;;;5.85;;
33844;SDS011;20145;43.118;25.694;2023-11-19T14:02:49;6.00;;;5.40;;
33844;SDS011;20145;43.118;25.694;2023-11-19T14:05:15;8.55;;;6.80;;
33844;SDS011;20145;43.118;25.694;2023-11-19T14:07:44;13.32;;;8.80;;
33844;SDS011;20145;43.118;25.694;2023-11-19T14:10:13;6.38;;;5.72;;
33844;SDS011;20145;43.118;25.694;2023-11-19T14:12:40;8.10;;;7.30;;
33844;SDS011;20145;43.118;25.694;2023-11-19T14:15:07;8.98;;;6.65;;
33844;SDS011;20145;43.118;25.694;2023-11-19T14:17:39;10.23;;;7.65;;
33844;SDS011;20145;43.118;25.694;2023-11-19T14:20:05;10.95;;;8.68;;
33844;SDS011;20145;43.118;25.694;2023-11-19T14:22:42;11.48;;;8.85;;
33844;SDS011;20145;43.118;25.694;2023-11-19T14:25:09;8.52;;;6.82;;
33844;SDS011;20145;43.118;25.694;2023-11-19T14:27:39;11.00;;;7.97;;
33844;SDS011;20145;43.118;25.694;2023-11-19T14:30:06;11.23;;;8.63;;
33844;SDS011;20145;43.118;25.694;2023-11-19T14:32:37;12.43;;;8.60;;
33844;SDS011;20145;43.118;25.694;2023-11-19T14:35:03;17.23;;;11.18;;
33844;SDS011;20145;43.118;25.694;2023-11-19T14:37:30;12.63;;;9.95;;
33844;SDS011;20145;43.118;25.694;2023-11-19T14:39:56;13.95;;;10.38;;
33844;SDS011;20145;43.118;25.694;2023-11-19T14:42:23;17.27;;;11.27;;
33844;SDS011;20145;43.118;25.694;2023-11-19T14:44:52;11.75;;;8.82;;
33844;SDS011;20145;43.118;25.694;2023-11-19T14:47:19;14.85;;;11.63;;
33844;SDS011;20145;43.118;25.694;2023-11-19T14:49:45;17.13;;;10.02;;
33844;SDS011;20145;43.118;25.694;2023-11-19T14:52:11;16.60;;;10.70;;
33844;SDS011;20145;43.118;25.694;2023-11-19T14:54:37;19.85;;;12.27;;
33844;SDS011;20145;43.118;25.694;2023-11-19T14:57:03;20.25;;;13.90;;
33844;SDS011;20145;43.118;25.694;2023-11-19T14:59:29;19.40;;;13.65;;
33844;SDS011;20145;43.118;25.694;2023-11-19T15:01:55;20.42;;;13.93;;
33844;SDS011;20145;43.118;25.694;2023-11-19T15:04:20;19.55;;;14.63;;
33844;SDS011;20145;43.118;25.694;2023-11-19T15:06:46;23.42;;;13.80;;
33844;SDS011;20145;43.118;25.694;2023-11-19T15:09:12;16.02;;;11.88;;
33844;SDS011;20145;43.118;25.694;2023-11-19T15:11:43;14.25;;;10.52;;
33844;SDS011;20145;43.118;25.694;2023-11-19T15:14:11;16.33;;;10.90;;